Decoded Metar for KPBH (PHILLIPS/PRICE in WI, USA) (IATA:PBH) | Meteo·Mobile Aviation Weather
aviador You're here:

KPBH Decoded Metar

PHILLIPS/PRICE in WI, USA
Report Time2019-08-19 18:35:00
UTC Time2019-08-19 18:47:42
Flight Rules vfr VFR
Wind230° at 08 kt
W.Decomp.*RWY 24: 7.9 kt HW 1.4 kt LCW
RWY 19: 6.1 kt HW 5.1 kt RCW
Visibility9999 m
Phenomena:N/A
Clouds:N/A
Expected CloudBase > 4,400 ft AGL from Temp-Dew spread
CeilingNone
Temp22°C (ISA +10)
Dew Point11°C (50% RH)
AAT19.5°C
QNH1017 hPa
Density Alt2,674 ft
Elevation1,473 ft
Report Wrong Elevation
Raw Report
KPBH 191835Z AUTO 23008KT 10SM CLR 22/11 A3002 RMK AO2
T02160105=

Extra information for KPBH:More info

Metar Taf Metar & Taf Last 4 Metars F.Rules Stats Wind Profile Meteogram Temp Stats Airport Information Weather charts Add Link Nearby VenuesMetar ALERT Operation Metar Decoded Social comments

AIRNAV info for KPBH